createdAt,value
2022-12-19T00:00:44.918Z,23.43
2022-12-19T00:03:15.775Z,27.87
2022-12-19T00:05:43.809Z,33.00
2022-12-19T00:08:17.619Z,24.10
2022-12-19T00:10:56.260Z,29.93
2022-12-19T00:13:31.170Z,26.10
2022-12-19T00:16:03.893Z,31.87
2022-12-19T00:18:31.835Z,25.43
2022-12-19T00:21:01.276Z,29.47
2022-12-19T00:23:33.335Z,29.07
2022-12-19T00:26:10.986Z,29.43
2022-12-19T00:28:46.040Z,28.83
2022-12-19T00:31:17.036Z,27.60
2022-12-19T00:33:47.891Z,30.60
2022-12-19T00:36:22.420Z,29.87
2022-12-19T00:38:51.753Z,28.90
2022-12-19T00:41:30.438Z,35.30
2022-12-19T00:43:59.414Z,33.23
2022-12-19T00:46:28.377Z,33.33
2022-12-19T00:49:01.124Z,28.80
2022-12-19T00:51:32.888Z,28.43
2022-12-19T00:54:01.077Z,28.93
2022-12-19T00:56:37.124Z,30.50
2022-12-19T00:59:08.893Z,29.90
2022-12-19T01:01:39.460Z,31.57
2022-12-19T01:07:02.522Z,33.67
2022-12-19T01:09:35.899Z,29.00
2022-12-19T01:12:24.623Z,26.97
2022-12-19T01:15:04.640Z,31.47
2022-12-19T01:17:44.280Z,26.80
2022-12-19T01:20:14.535Z,32.20
2022-12-19T01:22:42.394Z,33.30
2022-12-19T01:25:10.464Z,28.10
2022-12-19T01:27:41.649Z,29.20
2022-12-19T01:30:11.234Z,29.67
2022-12-19T01:32:40.283Z,30.40
2022-12-19T01:35:10.869Z,31.63
2022-12-19T01:37:48.711Z,34.20
2022-12-19T01:40:17.961Z,29.23
2022-12-19T01:42:50.068Z,34.43
2022-12-19T01:45:33.446Z,36.00
2022-12-19T01:48:08.345Z,32.60
2022-12-19T01:50:40.797Z,35.50
2022-12-19T01:53:19.096Z,32.97
2022-12-19T01:55:50.210Z,29.97
2022-12-19T01:58:20.354Z,37.37
2022-12-19T02:00:48.603Z,34.87
2022-12-19T02:03:22.005Z,34.93
2022-12-19T02:05:52.999Z,39.10
2022-12-19T02:08:22.109Z,36.67
2022-12-19T02:10:50.301Z,34.00
2022-12-19T02:13:20.746Z,38.53
2022-12-19T02:15:57.310Z,31.97
2022-12-19T02:18:39.919Z,37.73
2022-12-19T02:21:42.966Z,31.03
2022-12-19T02:24:35.423Z,32.63
2022-12-19T02:27:40.160Z,34.67
2022-12-19T02:30:13.556Z,33.27
2022-12-19T02:33:04.437Z,38.17
2022-12-19T02:35:42.907Z,36.70
2022-12-19T02:38:18.676Z,36.60
2022-12-19T02:40:55.644Z,38.63
2022-12-19T02:43:26.626Z,35.50
2022-12-19T02:45:56.414Z,34.93
2022-12-19T02:48:28.530Z,35.03
2022-12-19T02:50:56.562Z,42.50
2022-12-19T02:53:25.773Z,38.77
2022-12-19T02:56:22.475Z,35.03
2022-12-19T02:59:03.768Z,40.93
2022-12-19T03:01:43.432Z,35.13
2022-12-19T03:04:28.938Z,39.00
2022-12-19T03:07:03.662Z,38.20
2022-12-19T03:09:46.467Z,37.13
2022-12-19T03:12:22.898Z,36.00
2022-12-19T03:14:53.736Z,34.63
2022-12-19T03:17:22.498Z,36.27
2022-12-19T03:19:51.804Z,38.73
2022-12-19T03:22:19.915Z,32.67
2022-12-19T03:24:50.138Z,37.27
2022-12-19T03:27:23.888Z,38.07
2022-12-19T03:29:56.043Z,36.30
2022-12-19T03:32:25.791Z,35.00
2022-12-19T03:34:59.578Z,37.80
2022-12-19T03:37:32.852Z,35.23
2022-12-19T03:40:09.972Z,37.97
2022-12-19T03:42:58.928Z,33.60
2022-12-19T03:45:35.211Z,37.57
2022-12-19T03:48:09.218Z,38.03
2022-12-19T03:50:45.865Z,35.20
2022-12-19T03:53:26.007Z,29.87
2022-12-19T03:55:59.181Z,34.30
2022-12-19T03:58:32.255Z,32.47
2022-12-19T04:01:01.309Z,39.27
2022-12-19T04:03:32.001Z,39.87
2022-12-19T04:06:02.970Z,38.03
2022-12-19T04:08:33.028Z,36.77
2022-12-19T04:11:06.084Z,33.83
2022-12-19T04:13:38.838Z,31.70
2022-12-19T04:16:13.964Z,35.67
2022-12-19T04:18:47.300Z,35.77
2022-12-19T04:21:20.768Z,39.37
2022-12-19T04:23:53.374Z,31.80
2022-12-19T04:26:23.988Z,38.83
2022-12-19T04:28:55.494Z,32.83
2022-12-19T04:31:26.005Z,35.20
2022-12-19T04:33:53.849Z,33.07
2022-12-19T04:36:23.265Z,36.50
2022-12-19T04:38:51.097Z,34.87
2022-12-19T04:41:19.013Z,36.80
2022-12-19T04:43:46.938Z,35.97
2022-12-19T04:46:14.844Z,37.07
2022-12-19T04:48:42.672Z,33.47
2022-12-19T04:51:10.507Z,34.87
2022-12-19T04:53:42.217Z,37.90
2022-12-19T04:56:10.811Z,32.70
2022-12-19T04:58:38.948Z,35.67
2022-12-19T05:01:10.243Z,32.67
2022-12-19T05:03:38.622Z,37.00
2022-12-19T05:06:08.246Z,34.73
2022-12-19T05:08:36.854Z,33.63
2022-12-19T05:11:13.285Z,36.43
2022-12-19T05:13:43.906Z,36.27
2022-12-19T05:16:13.741Z,29.43
2022-12-19T05:18:41.561Z,31.93
2022-12-19T05:21:11.004Z,35.87
2022-12-19T05:23:39.452Z,30.27
2022-12-19T05:26:08.828Z,34.03
2022-12-19T05:28:36.643Z,32.10
2022-12-19T05:31:09.076Z,32.83
2022-12-19T05:33:37.182Z,32.67
2022-12-19T05:36:05.431Z,32.17
2022-12-19T05:38:58.903Z,33.63
2022-12-19T05:41:28.079Z,31.83
2022-12-19T05:43:57.238Z,35.47
2022-12-19T05:46:25.765Z,31.80
2022-12-19T05:48:54.897Z,35.07
2022-12-19T05:51:23.076Z,32.67
2022-12-19T05:53:50.913Z,33.07
2022-12-19T05:56:20.179Z,31.33
2022-12-19T05:58:51.805Z,35.20
2022-12-19T06:01:22.292Z,32.93
2022-12-19T06:03:50.823Z,33.00
2022-12-19T06:06:20.962Z,34.27
2022-12-19T06:08:54.157Z,35.47
2022-12-19T06:11:22.237Z,36.70
2022-12-19T06:13:51.593Z,32.93
2022-12-19T06:16:21.346Z,34.63
2022-12-19T06:18:49.234Z,35.17
2022-12-19T06:21:19.134Z,32.33
2022-12-19T06:23:48.171Z,33.63
2022-12-19T06:26:20.135Z,30.13
2022-12-19T06:28:48.249Z,27.30
2022-12-19T06:31:18.076Z,33.93
2022-12-19T06:33:49.421Z,36.07
2022-12-19T06:36:20.188Z,33.10
2022-12-19T06:38:48.144Z,32.07
2022-12-19T06:41:34.440Z,30.07
2022-12-19T06:44:03.734Z,34.40
2022-12-19T06:46:35.396Z,33.43
2022-12-19T06:49:03.585Z,34.37
2022-12-19T06:51:31.490Z,35.37
2022-12-19T06:53:59.730Z,30.57
2022-12-19T06:56:28.059Z,36.47
2022-12-19T06:58:55.884Z,29.20
2022-12-19T07:01:35.936Z,32.93
2022-12-19T07:04:05.405Z,32.33
2022-12-19T07:06:35.715Z,27.13
2022-12-19T07:09:03.610Z,36.50
2022-12-19T07:11:31.551Z,33.07
2022-12-19T07:13:59.441Z,31.80
2022-12-19T07:16:28.670Z,34.60
2022-12-19T07:18:56.652Z,29.57
2022-12-19T07:21:26.175Z,32.27
2022-12-19T07:23:56.420Z,32.40
2022-12-19T07:26:24.392Z,33.47
2022-12-19T07:28:52.295Z,33.60
2022-12-19T07:31:20.064Z,31.43
2022-12-19T07:33:50.051Z,33.60
2022-12-19T07:36:20.316Z,35.67
2022-12-19T07:38:52.904Z,34.10
2022-12-19T07:41:20.822Z,33.63
2022-12-19T07:43:48.711Z,33.57
2022-12-19T07:46:16.951Z,33.97
2022-12-19T07:48:44.804Z,35.83
2022-12-19T07:51:12.656Z,32.00
2022-12-19T07:53:40.451Z,37.03
2022-12-19T07:56:09.996Z,33.43
2022-12-19T07:58:38.346Z,35.60
2022-12-19T08:01:16.092Z,29.03
2022-12-19T08:03:46.571Z,34.63
2022-12-19T08:06:16.294Z,32.27
2022-12-19T08:08:44.229Z,35.63
2022-12-19T08:11:18.714Z,32.83
2022-12-19T08:13:49.216Z,34.97
2022-12-19T08:16:19.813Z,31.57
2022-12-19T08:18:53.462Z,32.37
2022-12-19T08:21:24.347Z,30.73
2022-12-19T08:23:55.565Z,31.87
2022-12-19T08:26:32.700Z,36.97
2022-12-19T08:29:05.655Z,29.13
2022-12-19T08:31:36.738Z,28.37
2022-12-19T08:34:09.751Z,31.43
2022-12-19T08:36:38.485Z,33.70
2022-12-19T08:39:15.129Z,35.17
2022-12-19T08:41:44.678Z,29.43
2022-12-19T08:44:13.262Z,29.87
2022-12-19T08:46:46.567Z,28.57
2022-12-19T08:49:17.618Z,31.43
2022-12-19T08:51:45.473Z,31.77
2022-12-19T08:54:13.476Z,29.17
2022-12-19T08:56:45.177Z,29.37
2022-12-19T08:59:24.973Z,30.07
2022-12-19T09:02:02.455Z,32.10
2022-12-19T09:05:59.913Z,30.20
2022-12-19T09:07:19.238Z,31.43
2022-12-19T09:09:47.180Z,30.20
2022-12-19T09:12:17.458Z,28.27
2022-12-19T09:14:46.704Z,31.63
2022-12-19T09:17:15.135Z,29.97
2022-12-19T09:19:47.831Z,34.63
2022-12-19T09:22:16.751Z,29.63
2022-12-19T09:24:46.434Z,30.90
2022-12-19T09:27:16.802Z,26.13
2022-12-19T09:29:54.991Z,33.20
2022-12-19T09:32:26.128Z,28.70
2022-12-19T09:34:58.384Z,27.10
2022-12-19T09:37:28.991Z,34.07
2022-12-19T09:39:59.672Z,29.67
2022-12-19T09:42:43.842Z,24.43
2022-12-19T09:45:42.036Z,28.73
2022-12-19T09:48:24.219Z,30.67
2022-12-19T09:51:09.232Z,29.53
2022-12-19T09:53:54.642Z,25.07
2022-12-19T09:56:29.878Z,27.10
2022-12-19T09:59:10.244Z,28.83
2022-12-19T10:01:50.801Z,31.87
2022-12-19T10:04:20.252Z,32.23
2022-12-19T10:07:12.835Z,27.77
2022-12-19T10:12:34.499Z,25.60
2022-12-19T10:12:49.822Z,30.80
2022-12-19T10:15:29.734Z,27.43
2022-12-19T10:18:13.753Z,30.33
2022-12-19T10:20:49.945Z,27.17
2022-12-19T10:23:48.378Z,26.50
2022-12-19T10:26:20.752Z,32.37
2022-12-19T10:29:08.076Z,28.60
2022-12-19T10:31:41.482Z,29.23
2022-12-19T10:34:22.819Z,28.60
2022-12-19T10:39:53.177Z,29.83
2022-12-19T10:42:35.602Z,27.23
2022-12-19T10:45:14.336Z,26.93
2022-12-19T10:47:44.560Z,27.60
2022-12-19T10:50:24.059Z,27.47
2022-12-19T10:52:54.957Z,26.63
2022-12-19T10:55:28.818Z,26.50
2022-12-19T10:57:59.255Z,30.33
2022-12-19T11:00:29.160Z,24.77
2022-12-19T11:03:16.840Z,26.50
2022-12-19T11:05:58.147Z,26.70
2022-12-19T11:08:33.142Z,28.37
2022-12-19T11:12:08.320Z,28.50
2022-12-19T11:18:17.094Z,25.83
2022-12-19T11:21:26.893Z,30.00
2022-12-19T11:29:19.403Z,25.43
2022-12-19T11:29:37.686Z,27.57
2022-12-19T11:30:08.652Z,26.80
2022-12-19T11:30:43.838Z,29.43
2022-12-19T11:34:16.809Z,25.53
2022-12-19T11:36:50.762Z,30.43
2022-12-19T11:39:26.480Z,27.27
2022-12-19T11:42:02.103Z,29.83
2022-12-19T11:44:35.601Z,28.77
2022-12-19T11:47:13.527Z,28.47
2022-12-19T11:49:46.274Z,27.57
2022-12-19T11:53:02.421Z,31.77
2022-12-19T11:55:25.520Z,26.00
2022-12-19T11:57:55.279Z,28.83
2022-12-19T12:00:25.958Z,22.47
2022-12-19T12:03:28.395Z,20.37
2022-12-19T12:05:58.508Z,26.50
2022-12-19T12:10:56.283Z,25.47
2022-12-19T12:17:39.190Z,26.63
2022-12-19T12:25:02.731Z,22.43
2022-12-19T12:31:01.793Z,22.33
2022-12-19T12:31:01.843Z,25.67
2022-12-19T12:31:47.165Z,27.50
2022-12-19T12:31:52.739Z,25.63
2022-12-19T12:32:05.064Z,23.03
2022-12-19T12:35:32.823Z,30.07
2022-12-19T12:39:04.703Z,29.50
2022-12-19T12:42:02.374Z,24.43
2022-12-19T12:44:36.299Z,27.40
2022-12-19T12:47:16.490Z,33.13
2022-12-19T12:49:47.492Z,25.43
2022-12-19T12:52:20.889Z,28.80
2022-12-19T12:54:53.824Z,28.20
2022-12-19T12:57:36.477Z,29.20
2022-12-19T13:00:24.700Z,25.93
2022-12-19T13:02:57.361Z,22.90
2022-12-19T13:05:35.602Z,24.63
2022-12-19T13:08:46.980Z,25.27
2022-12-19T13:11:55.909Z,19.53
2022-12-19T13:14:45.341Z,25.77
2022-12-19T13:17:46.010Z,23.93
2022-12-19T13:20:45.666Z,29.70
2022-12-19T13:23:34.044Z,25.43
2022-12-19T13:26:01.963Z,26.87
2022-12-19T13:28:41.795Z,28.87
2022-12-19T13:31:22.900Z,24.83
2022-12-19T13:34:28.101Z,28.70
2022-12-19T13:39:55.537Z,27.17
2022-12-19T13:40:30.565Z,23.43
2022-12-19T13:43:27.226Z,30.97
2022-12-19T13:45:57.691Z,26.63
2022-12-19T13:48:31.651Z,25.43
2022-12-19T13:51:08.435Z,23.03
2022-12-19T13:53:41.809Z,21.77
2022-12-19T13:56:14.995Z,22.57
2022-12-19T13:58:48.315Z,22.73
2022-12-19T14:01:26.027Z,24.10
2022-12-19T14:03:56.448Z,35.67
2022-12-19T14:06:31.454Z,27.40
2022-12-19T14:11:23.678Z,29.50
2022-12-19T14:12:18.427Z,24.90
2022-12-19T14:15:13.491Z,29.07
2022-12-19T14:17:49.167Z,25.87
2022-12-19T14:22:02.055Z,29.80
2022-12-19T14:23:14.189Z,31.47
2022-12-19T14:28:19.824Z,28.67
2022-12-19T14:28:50.701Z,33.00
2022-12-19T14:31:25.537Z,27.97
2022-12-19T14:36:50.709Z,31.00
2022-12-19T14:39:28.867Z,23.90
2022-12-19T14:42:56.999Z,28.93
2022-12-19T14:54:02.606Z,24.50
2022-12-19T14:54:09.039Z,30.50
2022-12-19T14:54:37.408Z,27.77
2022-12-19T14:57:25.291Z,26.50
2022-12-19T15:01:07.828Z,24.67
2022-12-19T15:03:29.264Z,25.10
2022-12-19T15:07:07.604Z,28.80
2022-12-19T15:11:00.712Z,29.63
2022-12-19T15:14:20.296Z,24.60
2022-12-19T15:15:22.477Z,22.03
2022-12-19T15:17:52.346Z,19.53
2022-12-19T15:20:20.384Z,20.97
2022-12-19T15:22:48.511Z,23.60
2022-12-19T15:25:44.121Z,21.10
2022-12-19T15:28:13.014Z,23.53
2022-12-19T15:30:44.115Z,24.50
2022-12-19T15:33:15.810Z,22.70
2022-12-19T15:35:44.075Z,21.80
2022-12-19T15:38:11.996Z,22.07
2022-12-19T15:40:42.643Z,24.20
2022-12-19T15:43:53.155Z,19.07
2022-12-19T15:46:07.420Z,23.37
2022-12-19T15:48:40.283Z,20.10
2022-12-19T15:51:13.127Z,19.20
2022-12-19T15:53:41.627Z,21.90
2022-12-19T15:56:26.092Z,26.90
2022-12-19T15:58:55.759Z,23.43
2022-12-19T16:01:25.570Z,22.43
2022-12-19T16:03:54.008Z,21.03
2022-12-19T16:06:22.201Z,23.20
2022-12-19T16:08:50.164Z,20.90
2022-12-19T16:11:20.884Z,23.83
2022-12-19T16:13:52.974Z,19.90
2022-12-19T16:16:21.438Z,23.90
2022-12-19T16:19:01.799Z,20.40
2022-12-19T16:21:34.289Z,22.60
2022-12-19T16:24:02.447Z,21.87
2022-12-19T16:26:34.433Z,24.53
2022-12-19T16:29:02.821Z,22.03
2022-12-19T16:31:30.792Z,25.17
2022-12-19T16:34:02.311Z,22.17
2022-12-19T16:36:30.108Z,25.17
2022-12-19T16:38:57.895Z,24.83
2022-12-19T16:41:28.455Z,21.63
2022-12-19T16:43:57.128Z,23.37
2022-12-19T16:46:30.856Z,17.33
2022-12-19T16:49:00.197Z,19.00
2022-12-19T16:51:29.172Z,22.33
2022-12-19T16:53:59.818Z,25.30
2022-12-19T16:56:31.388Z,26.47
2022-12-19T16:59:01.963Z,24.30
2022-12-19T17:01:30.821Z,24.70
2022-12-19T17:03:59.990Z,25.07
2022-12-19T17:06:27.851Z,29.80
2022-12-19T17:08:55.776Z,26.30
2022-12-19T17:11:26.360Z,30.47
2022-12-19T17:13:58.138Z,22.87
2022-12-19T17:16:26.089Z,20.33
2022-12-19T17:18:54.273Z,23.63
2022-12-19T17:21:24.423Z,27.23
2022-12-19T17:23:54.979Z,21.67
2022-12-19T17:26:22.886Z,27.73
2022-12-19T17:28:51.105Z,22.23
2022-12-19T17:31:24.605Z,21.97
2022-12-19T17:33:55.341Z,20.97
2022-12-19T17:36:34.749Z,26.67
2022-12-19T17:39:18.313Z,21.47
2022-12-19T17:41:46.219Z,22.10
2022-12-19T17:44:14.232Z,23.10
2022-12-19T17:46:42.295Z,25.37
2022-12-19T17:49:17.638Z,26.07
2022-12-19T17:51:52.233Z,22.67
2022-12-19T17:54:23.228Z,22.37
2022-12-19T17:56:53.668Z,26.77
2022-12-19T17:59:21.811Z,21.83
2022-12-19T18:01:49.864Z,23.97
2022-12-19T18:04:21.066Z,25.67
2022-12-19T18:06:50.838Z,24.23
2022-12-19T18:09:20.471Z,22.07
2022-12-19T18:11:48.817Z,20.13
2022-12-19T18:14:17.261Z,24.47
2022-12-19T18:16:46.366Z,27.87
2022-12-19T18:19:19.584Z,20.73
2022-12-19T18:21:51.471Z,25.03
2022-12-19T18:24:19.419Z,22.67
2022-12-19T18:26:47.481Z,21.00
2022-12-19T18:29:16.352Z,26.17
2022-12-19T18:31:50.577Z,22.43
2022-12-19T18:34:21.638Z,21.17
2022-12-19T18:36:51.270Z,20.97
2022-12-19T18:39:24.310Z,22.17
2022-12-19T18:41:52.996Z,21.97
2022-12-19T18:44:22.633Z,20.70
2022-12-19T18:46:51.576Z,24.07
2022-12-19T18:49:22.885Z,22.07
2022-12-19T18:51:52.244Z,21.93
2022-12-19T18:54:23.117Z,21.50
2022-12-19T18:56:51.931Z,23.80
2022-12-19T18:59:20.076Z,22.27
2022-12-19T19:01:48.657Z,24.93
2022-12-19T19:04:18.011Z,22.97
2022-12-19T19:06:51.527Z,25.40
2022-12-19T19:09:22.741Z,19.60
2022-12-19T19:12:15.508Z,24.33
2022-12-19T19:14:43.427Z,24.53
2022-12-19T19:17:24.664Z,24.20
2022-12-19T19:19:52.732Z,23.33
2022-12-19T19:22:20.842Z,21.57
2022-12-19T19:24:50.579Z,21.77
2022-12-19T19:27:18.566Z,21.50
2022-12-19T19:29:49.576Z,22.67
2022-12-19T19:32:17.669Z,21.87
2022-12-19T19:34:47.857Z,19.47
2022-12-19T19:37:16.848Z,23.60
2022-12-19T19:39:44.979Z,25.37
2022-12-19T19:42:14.302Z,24.53
2022-12-19T19:44:42.240Z,20.77
2022-12-19T19:47:10.450Z,21.90
2022-12-19T19:49:39.715Z,22.50
2022-12-19T19:52:07.680Z,20.63
2022-12-19T19:54:36.482Z,24.53
2022-12-19T19:57:04.513Z,25.53
2022-12-19T19:59:33.961Z,23.67
2022-12-19T20:02:02.125Z,20.40
2022-12-19T20:04:30.560Z,22.00
2022-12-19T20:07:00.991Z,27.10
2022-12-19T20:09:31.285Z,24.73
2022-12-19T20:12:02.280Z,20.93
2022-12-19T20:14:30.140Z,17.70
2022-12-19T20:17:01.485Z,19.57
2022-12-19T20:19:29.326Z,20.47
2022-12-19T20:21:58.718Z,18.93
2022-12-19T20:24:29.307Z,20.97
2022-12-19T20:26:57.910Z,17.87
2022-12-19T20:29:26.780Z,22.03
2022-12-19T20:31:56.397Z,20.73
2022-12-19T20:34:25.945Z,18.83
2022-12-19T20:36:53.945Z,19.83
2022-12-19T20:39:22.925Z,19.30
2022-12-19T20:41:51.280Z,20.67
2022-12-19T20:44:24.435Z,23.90
2022-12-19T20:46:52.732Z,20.53
2022-12-19T20:49:21.553Z,18.73
2022-12-19T20:51:50.843Z,17.83
2022-12-19T20:54:19.187Z,19.53
2022-12-19T20:56:47.219Z,19.53
2022-12-19T20:59:15.168Z,18.67
2022-12-19T21:01:43.212Z,18.23
2022-12-19T21:04:11.520Z,17.33
2022-12-19T21:06:41.244Z,18.43
2022-12-19T21:09:11.481Z,16.70
2022-12-19T21:11:40.109Z,18.93
2022-12-19T21:14:11.603Z,16.03
2022-12-19T21:16:39.592Z,18.43
2022-12-19T21:19:07.582Z,16.83
2022-12-19T21:21:38.411Z,20.80
2022-12-19T21:24:06.550Z,18.27
2022-12-19T21:26:35.753Z,15.37
2022-12-19T21:29:03.897Z,17.53
2022-12-19T21:31:32.168Z,16.90
2022-12-19T21:34:02.433Z,17.43
2022-12-19T21:36:32.133Z,17.40
2022-12-19T21:39:02.013Z,18.37
2022-12-19T21:41:30.170Z,14.63
2022-12-19T21:44:00.514Z,20.20
2022-12-19T21:46:33.179Z,16.57
2022-12-19T21:49:02.904Z,19.10
2022-12-19T21:51:32.717Z,16.13
2022-12-19T21:54:02.675Z,16.93
2022-12-19T21:56:31.937Z,15.93
2022-12-19T21:59:06.467Z,16.30
2022-12-19T22:01:35.107Z,16.97
2022-12-19T22:04:07.041Z,15.63
2022-12-19T22:06:38.063Z,19.00
2022-12-19T22:09:08.109Z,15.73
2022-12-19T22:11:36.916Z,14.63
2022-12-19T22:14:06.941Z,17.63
2022-12-19T22:16:35.890Z,16.07
2022-12-19T22:19:06.658Z,19.17
2022-12-19T22:21:35.406Z,16.30
2022-12-19T22:24:05.814Z,18.17
2022-12-19T22:26:35.530Z,17.10
2022-12-19T22:29:09.743Z,18.23
2022-12-19T22:31:39.113Z,17.40
2022-12-19T22:34:11.841Z,19.80
2022-12-19T22:36:41.247Z,18.23
2022-12-19T22:39:11.849Z,19.13
2022-12-19T22:41:42.905Z,19.87
2022-12-19T22:44:17.317Z,18.33
2022-12-19T22:46:45.218Z,16.17
2022-12-19T22:49:14.214Z,20.73
2022-12-19T22:51:42.504Z,17.60
2022-12-19T22:54:11.889Z,21.47
2022-12-19T22:56:42.505Z,18.40
2022-12-19T22:59:14.386Z,21.00
2022-12-19T23:01:44.228Z,19.00
2022-12-19T23:04:15.180Z,23.07
2022-12-19T23:06:43.556Z,21.70
2022-12-19T23:09:16.011Z,17.47
2022-12-19T23:11:48.551Z,21.20
2022-12-19T23:14:19.560Z,17.27
2022-12-19T23:16:47.788Z,20.07
2022-12-19T23:19:16.889Z,19.23
2022-12-19T23:21:45.004Z,17.20
2022-12-19T23:24:15.246Z,19.07
2022-12-19T23:26:43.394Z,18.77
2022-12-19T23:29:13.255Z,16.37
2022-12-19T23:31:44.935Z,14.57
2022-12-19T23:34:13.291Z,17.33
2022-12-19T23:39:29.026Z,12.93
2022-12-19T23:41:57.068Z,14.33
2022-12-19T23:44:25.059Z,15.33
2022-12-19T23:47:00.814Z,17.23
2022-12-19T23:49:30.954Z,18.33
2022-12-19T23:52:01.557Z,18.70
2022-12-19T23:54:29.470Z,22.40
2022-12-19T23:56:57.406Z,19.93
2022-12-19T23:59:27.668Z,18.43
